Terminal Aerodrome Forecast
Issued by NWS Grand Forks, ND

Home | Current Version | Previous Version | Text Only | Print | Product List | Glossary Off
Versions: 1 2 3 4 5 6 7 8 9 10 11 12

000
FTUS43 KFGF 222331
TAFGFK
TAF
KGFK 222331Z 2300/2324 19007KT P6SM FEW080
     FM231500 18008G18KT P6SM SCT250
     FM231900 19008G16KT P6SM SCT060 BKN250=

USA.gov is the U.S. government's official web portal to all federal, state and local government web resources and services.